sensor_id;sensor_type;location;lat;lon;timestamp;temperature;humidity
59855;DHT22;45732;52.850;6.896;2023-08-12T00:01:50;20.30;99.90
59855;DHT22;45732;52.850;6.896;2023-08-12T00:04:16;20.30;99.90
59855;DHT22;45732;52.850;6.896;2023-08-12T00:06:42;20.30;99.90
59855;DHT22;45732;52.850;6.896;2023-08-12T00:09:09;20.30;99.90
59855;DHT22;45732;52.850;6.896;2023-08-12T00:11:37;20.20;99.90
59855;DHT22;45732;52.850;6.896;2023-08-12T00:14:03;20.20;99.90
59855;DHT22;45732;52.850;6.896;2023-08-12T00:16:29;20.20;99.90
59855;DHT22;45732;52.850;6.896;2023-08-12T00:18:55;20.20;99.90
59855;DHT22;45732;52.850;6.896;2023-08-12T00:21:21;20.20;99.90
59855;DHT22;45732;52.850;6.896;2023-08-12T00:23:46;20.20;99.90
59855;DHT22;45732;52.850;6.896;2023-08-12T00:26:15;20.20;99.90
59855;DHT22;45732;52.850;6.896;2023-08-12T00:28:40;20.20;99.90
59855;DHT22;45732;52.850;6.896;2023-08-12T00:31:06;20.20;99.90
59855;DHT22;45732;52.850;6.896;2023-08-12T00:33:32;20.10;99.90
59855;DHT22;45732;52.850;6.896;2023-08-12T00:35:58;20.20;99.90
59855;DHT22;45732;52.850;6.896;2023-08-12T00:38:24;20.10;99.90
59855;DHT22;45732;52.850;6.896;2023-08-12T00:40:50;20.10;99.90
59855;DHT22;45732;52.850;6.896;2023-08-12T00:43:16;20.10;99.90
59855;DHT22;45732;52.850;6.896;2023-08-12T00:45:41;20.00;99.90
59855;DHT22;45732;52.850;6.896;2023-08-12T00:48:08;20.00;99.90
59855;DHT22;45732;52.850;6.896;2023-08-12T00:50:36;20.10;99.90
59855;DHT22;45732;52.850;6.896;2023-08-12T00:53:02;20.10;99.90
59855;DHT22;45732;52.850;6.896;2023-08-12T00:55:28;20.00;99.90
59855;DHT22;45732;52.850;6.896;2023-08-12T00:57:54;20.00;99.90
59855;DHT22;45732;52.850;6.896;2023-08-12T01:00:21;20.00;99.90
59855;DHT22;45732;52.850;6.896;2023-08-12T01:02:47;20.00;99.90
59855;DHT22;45732;52.850;6.896;2023-08-12T01:05:14;20.00;99.90
59855;DHT22;45732;52.850;6.896;2023-08-12T01:07:42;20.00;99.90
59855;DHT22;45732;52.850;6.896;2023-08-12T01:10:08;20.00;99.90
59855;DHT22;45732;52.850;6.896;2023-08-12T01:13:02;20.00;99.90
59855;DHT22;45732;52.850;6.896;2023-08-12T01:15:30;20.00;99.90
59855;DHT22;45732;52.850;6.896;2023-08-12T01:17:56;20.00;99.90
59855;DHT22;45732;52.850;6.896;2023-08-12T01:20:25;20.00;99.90
59855;DHT22;45732;52.850;6.896;2023-08-12T01:25:36;19.90;99.90
59855;DHT22;45732;52.850;6.896;2023-08-12T01:28:02;19.90;99.90
59855;DHT22;45732;52.850;6.896;2023-08-12T01:30:29;19.90;99.90
59855;DHT22;45732;52.850;6.896;2023-08-12T01:33:01;19.90;99.90
59855;DHT22;45732;52.850;6.896;2023-08-12T01:35:39;19.90;99.90
59855;DHT22;45732;52.850;6.896;2023-08-12T01:38:06;19.90;99.90
59855;DHT22;45732;52.850;6.896;2023-08-12T01:40:35;19.80;99.90
59855;DHT22;45732;52.850;6.896;2023-08-12T01:43:02;19.80;99.90
59855;DHT22;45732;52.850;6.896;2023-08-12T01:45:31;19.80;99.90
59855;DHT22;45732;52.850;6.896;2023-08-12T01:47:57;19.80;99.90
59855;DHT22;45732;52.850;6.896;2023-08-12T01:50:23;19.80;99.90
59855;DHT22;45732;52.850;6.896;2023-08-12T01:52:49;19.80;99.90
59855;DHT22;45732;52.850;6.896;2023-08-12T01:55:15;19.80;99.90
59855;DHT22;45732;52.850;6.896;2023-08-12T01:57:41;19.70;99.90
59855;DHT22;45732;52.850;6.896;2023-08-12T02:00:07;19.70;99.90
59855;DHT22;45732;52.850;6.896;2023-08-12T02:02:33;19.70;99.90
59855;DHT22;45732;52.850;6.896;2023-08-12T02:04:59;19.70;99.90
59855;DHT22;45732;52.850;6.896;2023-08-12T02:07:25;19.70;99.90
59855;DHT22;45732;52.850;6.896;2023-08-12T02:09:50;19.70;99.90
59855;DHT22;45732;52.850;6.896;2023-08-12T02:12:16;19.60;99.90
59855;DHT22;45732;52.850;6.896;2023-08-12T02:14:42;19.60;99.90
59855;DHT22;45732;52.850;6.896;2023-08-12T02:17:07;19.60;99.90
59855;DHT22;45732;52.850;6.896;2023-08-12T02:19:34;19.60;99.90
59855;DHT22;45732;52.850;6.896;2023-08-12T02:22:00;19.60;99.90
59855;DHT22;45732;52.850;6.896;2023-08-12T02:24:27;19.70;99.90
59855;DHT22;45732;52.850;6.896;2023-08-12T02:26:53;19.70;99.90
59855;DHT22;45732;52.850;6.896;2023-08-12T02:29:19;19.70;99.90
59855;DHT22;45732;52.850;6.896;2023-08-12T02:31:44;19.60;99.90
59855;DHT22;45732;52.850;6.896;2023-08-12T02:34:10;19.70;99.90
59855;DHT22;45732;52.850;6.896;2023-08-12T02:36:36;19.60;99.90
59855;DHT22;45732;52.850;6.896;2023-08-12T02:39:02;19.70;99.90
59855;DHT22;45732;52.850;6.896;2023-08-12T02:41:27;19.60;99.90
59855;DHT22;45732;52.850;6.896;2023-08-12T02:43:53;19.70;99.90
59855;DHT22;45732;52.850;6.896;2023-08-12T02:46:19;19.70;99.90
59855;DHT22;45732;52.850;6.896;2023-08-12T02:48:45;19.70;99.90
59855;DHT22;45732;52.850;6.896;2023-08-12T02:51:13;19.70;99.90
59855;DHT22;45732;52.850;6.896;2023-08-12T02:53:38;19.70;99.90
59855;DHT22;45732;52.850;6.896;2023-08-12T02:56:04;19.80;99.90
59855;DHT22;45732;52.850;6.896;2023-08-12T02:58:30;19.80;99.90
59855;DHT22;45732;52.850;6.896;2023-08-12T03:00:55;19.80;99.90
59855;DHT22;45732;52.850;6.896;2023-08-12T03:03:21;19.70;99.90
59855;DHT22;45732;52.850;6.896;2023-08-12T03:05:47;19.80;99.90
59855;DHT22;45732;52.850;6.896;2023-08-12T03:08:13;19.80;99.90
59855;DHT22;45732;52.850;6.896;2023-08-12T03:10:40;19.80;99.90
59855;DHT22;45732;52.850;6.896;2023-08-12T03:13:06;19.80;99.90
59855;DHT22;45732;52.850;6.896;2023-08-12T03:15:32;19.80;99.90
59855;DHT22;45732;52.850;6.896;2023-08-12T03:17:57;19.80;99.90
59855;DHT22;45732;52.850;6.896;2023-08-12T03:20:23;19.80;99.90
59855;DHT22;45732;52.850;6.896;2023-08-12T03:22:49;19.80;99.90
59855;DHT22;45732;52.850;6.896;2023-08-12T03:25:15;19.90;99.90
59855;DHT22;45732;52.850;6.896;2023-08-12T03:27:41;19.90;99.90
59855;DHT22;45732;52.850;6.896;2023-08-12T03:30:07;19.90;99.90
59855;DHT22;45732;52.850;6.896;2023-08-12T03:32:33;19.80;99.90
59855;DHT22;45732;52.850;6.896;2023-08-12T03:34:59;19.80;99.90
59855;DHT22;45732;52.850;6.896;2023-08-12T03:37:26;19.80;99.90
59855;DHT22;45732;52.850;6.896;2023-08-12T03:39:52;19.80;99.90
59855;DHT22;45732;52.850;6.896;2023-08-12T03:42:17;19.80;99.90
59855;DHT22;45732;52.850;6.896;2023-08-12T03:44:44;19.80;99.90
59855;DHT22;45732;52.850;6.896;2023-08-12T03:47:10;19.80;99.90
59855;DHT22;45732;52.850;6.896;2023-08-12T03:49:36;19.80;99.90
59855;DHT22;45732;52.850;6.896;2023-08-12T03:52:02;19.70;99.90
59855;DHT22;45732;52.850;6.896;2023-08-12T03:54:28;19.70;99.90
59855;DHT22;45732;52.850;6.896;2023-08-12T03:56:54;19.70;99.90
59855;DHT22;45732;52.850;6.896;2023-08-12T03:59:20;19.70;99.90
59855;DHT22;45732;52.850;6.896;2023-08-12T04:01:45;19.70;99.90
59855;DHT22;45732;52.850;6.896;2023-08-12T04:04:11;19.70;99.90
59855;DHT22;45732;52.850;6.896;2023-08-12T04:06:37;19.70;99.90
59855;DHT22;45732;52.850;6.896;2023-08-12T04:09:03;19.70;99.90
59855;DHT22;45732;52.850;6.896;2023-08-12T04:11:29;19.70;99.90
59855;DHT22;45732;52.850;6.896;2023-08-12T04:13:55;19.70;99.90
59855;DHT22;45732;52.850;6.896;2023-08-12T04:16:21;19.50;99.90
59855;DHT22;45732;52.850;6.896;2023-08-12T04:18:47;19.60;99.90
59855;DHT22;45732;52.850;6.896;2023-08-12T04:21:13;19.60;99.90
59855;DHT22;45732;52.850;6.896;2023-08-12T04:23:39;19.60;99.90
59855;DHT22;45732;52.850;6.896;2023-08-12T04:26:05;19.60;99.90
59855;DHT22;45732;52.850;6.896;2023-08-12T04:28:31;19.60;99.90
59855;DHT22;45732;52.850;6.896;2023-08-12T04:30:57;19.60;99.90
59855;DHT22;45732;52.850;6.896;2023-08-12T04:33:23;19.60;99.90
59855;DHT22;45732;52.850;6.896;2023-08-12T04:35:49;19.60;99.90
59855;DHT22;45732;52.850;6.896;2023-08-12T04:38:15;19.60;99.90
59855;DHT22;45732;52.850;6.896;2023-08-12T04:40:41;19.60;99.90
59855;DHT22;45732;52.850;6.896;2023-08-12T04:43:08;19.60;99.90
59855;DHT22;45732;52.850;6.896;2023-08-12T04:45:34;19.60;99.90
59855;DHT22;45732;52.850;6.896;2023-08-12T04:48:00;19.60;99.90
59855;DHT22;45732;52.850;6.896;2023-08-12T04:50:29;19.60;99.90
59855;DHT22;45732;52.850;6.896;2023-08-12T04:52:56;19.60;99.90
59855;DHT22;45732;52.850;6.896;2023-08-12T04:55:21;19.60;99.90
59855;DHT22;45732;52.850;6.896;2023-08-12T04:57:47;19.60;99.90
59855;DHT22;45732;52.850;6.896;2023-08-12T05:00:13;19.60;99.90
59855;DHT22;45732;52.850;6.896;2023-08-12T05:02:39;19.60;99.90
59855;DHT22;45732;52.850;6.896;2023-08-12T05:05:05;19.70;99.90
59855;DHT22;45732;52.850;6.896;2023-08-12T05:07:31;19.60;99.90
59855;DHT22;45732;52.850;6.896;2023-08-12T05:09:57;19.70;99.90
59855;DHT22;45732;52.850;6.896;2023-08-12T05:12:22;19.60;99.90
59855;DHT22;45732;52.850;6.896;2023-08-12T05:14:48;19.70;99.90
59855;DHT22;45732;52.850;6.896;2023-08-12T05:17:14;19.70;99.90
59855;DHT22;45732;52.850;6.896;2023-08-12T05:19:39;19.70;99.90
59855;DHT22;45732;52.850;6.896;2023-08-12T05:22:05;19.70;99.90
59855;DHT22;45732;52.850;6.896;2023-08-12T05:24:31;19.70;99.90
59855;DHT22;45732;52.850;6.896;2023-08-12T05:26:57;19.70;99.90
59855;DHT22;45732;52.850;6.896;2023-08-12T05:29:22;19.80;99.90
59855;DHT22;45732;52.850;6.896;2023-08-12T05:31:48;19.80;99.90
59855;DHT22;45732;52.850;6.896;2023-08-12T05:34:14;19.80;99.90
59855;DHT22;45732;52.850;6.896;2023-08-12T05:36:39;19.80;99.90
59855;DHT22;45732;52.850;6.896;2023-08-12T05:39:05;19.90;99.90
59855;DHT22;45732;52.850;6.896;2023-08-12T05:41:31;19.90;99.90
59855;DHT22;45732;52.850;6.896;2023-08-12T05:43:57;19.90;99.90
59855;DHT22;45732;52.850;6.896;2023-08-12T05:46:22;19.90;99.90
59855;DHT22;45732;52.850;6.896;2023-08-12T05:48:48;20.00;99.90
59855;DHT22;45732;52.850;6.896;2023-08-12T05:51:14;20.00;99.90
59855;DHT22;45732;52.850;6.896;2023-08-12T05:53:39;20.10;99.90
59855;DHT22;45732;52.850;6.896;2023-08-12T05:56:05;20.10;99.90
59855;DHT22;45732;52.850;6.896;2023-08-12T05:58:31;20.20;99.90
59855;DHT22;45732;52.850;6.896;2023-08-12T06:00:56;20.20;99.90
59855;DHT22;45732;52.850;6.896;2023-08-12T06:03:22;20.20;99.90
59855;DHT22;45732;52.850;6.896;2023-08-12T06:05:48;20.30;99.90
59855;DHT22;45732;52.850;6.896;2023-08-12T06:08:14;20.30;99.90
59855;DHT22;45732;52.850;6.896;2023-08-12T06:13:06;20.40;99.90
59855;DHT22;45732;52.850;6.896;2023-08-12T06:15:33;20.50;99.90
59855;DHT22;45732;52.850;6.896;2023-08-12T06:17:59;20.60;99.90
59855;DHT22;45732;52.850;6.896;2023-08-12T06:22:52;20.70;99.90
59855;DHT22;45732;52.850;6.896;2023-08-12T06:25:18;20.80;99.90
59855;DHT22;45732;52.850;6.896;2023-08-12T06:27:45;20.80;99.90
59855;DHT22;45732;52.850;6.896;2023-08-12T06:30:12;20.80;99.90
59855;DHT22;45732;52.850;6.896;2023-08-12T06:32:38;20.90;99.90
59855;DHT22;45732;52.850;6.896;2023-08-12T06:35:04;20.80;99.90
59855;DHT22;45732;52.850;6.896;2023-08-12T06:37:30;20.80;99.90
59855;DHT22;45732;52.850;6.896;2023-08-12T06:39:56;20.90;99.90
59855;DHT22;45732;52.850;6.896;2023-08-12T06:42:22;20.80;99.90
59855;DHT22;45732;52.850;6.896;2023-08-12T06:44:56;20.80;99.90
59855;DHT22;45732;52.850;6.896;2023-08-12T06:47:21;20.90;99.90
59855;DHT22;45732;52.850;6.896;2023-08-12T06:49:47;20.80;99.90
59855;DHT22;45732;52.850;6.896;2023-08-12T06:52:13;20.90;99.90
59855;DHT22;45732;52.850;6.896;2023-08-12T06:54:39;20.90;99.90
59855;DHT22;45732;52.850;6.896;2023-08-12T06:57:04;20.90;99.90
59855;DHT22;45732;52.850;6.896;2023-08-12T06:59:30;20.90;99.90
59855;DHT22;45732;52.850;6.896;2023-08-12T07:01:56;20.90;99.90
59855;DHT22;45732;52.850;6.896;2023-08-12T07:04:22;20.90;99.90
59855;DHT22;45732;52.850;6.896;2023-08-12T07:06:48;20.90;99.90
59855;DHT22;45732;52.850;6.896;2023-08-12T07:09:13;20.90;99.90
59855;DHT22;45732;52.850;6.896;2023-08-12T07:11:40;20.80;99.90
59855;DHT22;45732;52.850;6.896;2023-08-12T07:14:06;20.80;99.90
59855;DHT22;45732;52.850;6.896;2023-08-12T07:16:31;20.80;99.90
59855;DHT22;45732;52.850;6.896;2023-08-12T07:18:57;20.80;99.90
59855;DHT22;45732;52.850;6.896;2023-08-12T07:21:23;20.80;99.90
59855;DHT22;45732;52.850;6.896;2023-08-12T07:23:48;20.70;99.90
59855;DHT22;45732;52.850;6.896;2023-08-12T07:26:14;20.70;99.90
59855;DHT22;45732;52.850;6.896;2023-08-12T07:28:40;20.70;99.90
59855;DHT22;45732;52.850;6.896;2023-08-12T07:31:06;20.80;99.90
59855;DHT22;45732;52.850;6.896;2023-08-12T07:33:32;20.80;99.90
59855;DHT22;45732;52.850;6.896;2023-08-12T07:35:57;20.70;99.90
59855;DHT22;45732;52.850;6.896;2023-08-12T07:38:23;20.70;99.90
59855;DHT22;45732;52.850;6.896;2023-08-12T07:40:49;20.70;99.90
59855;DHT22;45732;52.850;6.896;2023-08-12T07:43:15;20.70;99.90
59855;DHT22;45732;52.850;6.896;2023-08-12T07:45:41;20.70;99.90
59855;DHT22;45732;52.850;6.896;2023-08-12T07:48:06;20.60;99.90
59855;DHT22;45732;52.850;6.896;2023-08-12T07:50:32;20.60;99.90
59855;DHT22;45732;52.850;6.896;2023-08-12T07:52:58;20.60;99.90
59855;DHT22;45732;52.850;6.896;2023-08-12T07:55:24;20.60;99.90
59855;DHT22;45732;52.850;6.896;2023-08-12T07:57:50;20.60;99.90
59855;DHT22;45732;52.850;6.896;2023-08-12T08:00:15;20.60;99.90
59855;DHT22;45732;52.850;6.896;2023-08-12T08:02:41;20.60;99.90
59855;DHT22;45732;52.850;6.896;2023-08-12T08:05:07;20.70;99.90
59855;DHT22;45732;52.850;6.896;2023-08-12T08:07:33;20.70;99.90
59855;DHT22;45732;52.850;6.896;2023-08-12T08:09:59;20.70;99.90
59855;DHT22;45732;52.850;6.896;2023-08-12T08:12:25;20.70;99.90
59855;DHT22;45732;52.850;6.896;2023-08-12T08:14:50;20.70;99.90
59855;DHT22;45732;52.850;6.896;2023-08-12T08:17:16;20.70;99.90
59855;DHT22;45732;52.850;6.896;2023-08-12T08:19:42;20.70;99.90
59855;DHT22;45732;52.850;6.896;2023-08-12T08:22:08;20.70;99.90
59855;DHT22;45732;52.850;6.896;2023-08-12T08:24:34;20.60;99.90
59855;DHT22;45732;52.850;6.896;2023-08-12T08:27:00;20.60;99.90
59855;DHT22;45732;52.850;6.896;2023-08-12T08:29:25;20.60;99.90
59855;DHT22;45732;52.850;6.896;2023-08-12T08:31:51;20.60;99.90
59855;DHT22;45732;52.850;6.896;2023-08-12T08:34:17;20.60;99.90
59855;DHT22;45732;52.850;6.896;2023-08-12T08:36:43;20.50;99.90
59855;DHT22;45732;52.850;6.896;2023-08-12T08:39:08;20.50;99.90
59855;DHT22;45732;52.850;6.896;2023-08-12T08:41:38;20.50;99.90
59855;DHT22;45732;52.850;6.896;2023-08-12T08:44:06;20.40;99.90
59855;DHT22;45732;52.850;6.896;2023-08-12T08:46:33;20.40;99.90
59855;DHT22;45732;52.850;6.896;2023-08-12T08:48:59;20.40;99.90
59855;DHT22;45732;52.850;6.896;2023-08-12T08:51:27;20.30;99.90
59855;DHT22;45732;52.850;6.896;2023-08-12T08:53:56;20.30;99.90
59855;DHT22;45732;52.850;6.896;2023-08-12T08:56:22;20.30;99.90
59855;DHT22;45732;52.850;6.896;2023-08-12T08:58:48;20.30;99.90
59855;DHT22;45732;52.850;6.896;2023-08-12T09:01:17;20.30;99.90
59855;DHT22;45732;52.850;6.896;2023-08-12T09:03:45;20.30;99.90
59855;DHT22;45732;52.850;6.896;2023-08-12T09:06:12;20.30;99.90
59855;DHT22;45732;52.850;6.896;2023-08-12T09:08:41;20.30;99.90
59855;DHT22;45732;52.850;6.896;2023-08-12T09:11:09;20.30;99.90
59855;DHT22;45732;52.850;6.896;2023-08-12T09:13:35;20.40;99.90
59855;DHT22;45732;52.850;6.896;2023-08-12T09:16:00;20.40;99.90
59855;DHT22;45732;52.850;6.896;2023-08-12T09:18:26;20.40;99.90
59855;DHT22;45732;52.850;6.896;2023-08-12T09:20:53;20.40;99.90
59855;DHT22;45732;52.850;6.896;2023-08-12T09:23:19;20.40;99.90
59855;DHT22;45732;52.850;6.896;2023-08-12T09:25:45;20.40;99.90
59855;DHT22;45732;52.850;6.896;2023-08-12T09:28:11;20.40;99.90
59855;DHT22;45732;52.850;6.896;2023-08-12T09:30:38;20.40;99.90
59855;DHT22;45732;52.850;6.896;2023-08-12T09:33:06;20.40;99.90
59855;DHT22;45732;52.850;6.896;2023-08-12T09:35:40;20.30;99.90
59855;DHT22;45732;52.850;6.896;2023-08-12T09:38:07;20.20;99.90
59855;DHT22;45732;52.850;6.896;2023-08-12T09:40:34;20.30;99.90
59855;DHT22;45732;52.850;6.896;2023-08-12T09:43:01;20.30;99.90
59855;DHT22;45732;52.850;6.896;2023-08-12T09:45:27;20.20;99.90
59855;DHT22;45732;52.850;6.896;2023-08-12T09:47:54;20.20;99.90
59855;DHT22;45732;52.850;6.896;2023-08-12T09:50:24;20.30;99.90
59855;DHT22;45732;52.850;6.896;2023-08-12T09:52:51;20.20;99.90
59855;DHT22;45732;52.850;6.896;2023-08-12T09:55:19;20.20;99.90
59855;DHT22;45732;52.850;6.896;2023-08-12T09:57:48;20.20;99.90
59855;DHT22;45732;52.850;6.896;2023-08-12T10:00:15;20.10;99.90
59855;DHT22;45732;52.850;6.896;2023-08-12T10:02:50;20.10;99.90
59855;DHT22;45732;52.850;6.896;2023-08-12T10:05:31;20.10;99.90
59855;DHT22;45732;52.850;6.896;2023-08-12T10:07:57;20.10;99.90
59855;DHT22;45732;52.850;6.896;2023-08-12T10:10:25;20.10;99.90
59855;DHT22;45732;52.850;6.896;2023-08-12T10:12:51;20.10;99.90
59855;DHT22;45732;52.850;6.896;2023-08-12T10:15:17;20.00;99.90
59855;DHT22;45732;52.850;6.896;2023-08-12T10:17:44;20.00;99.90
59855;DHT22;45732;52.850;6.896;2023-08-12T10:20:20;20.00;99.90
59855;DHT22;45732;52.850;6.896;2023-08-12T10:22:46;20.10;99.90
59855;DHT22;45732;52.850;6.896;2023-08-12T10:25:14;20.00;99.90
59855;DHT22;45732;52.850;6.896;2023-08-12T10:27:40;20.00;99.90
59855;DHT22;45732;52.850;6.896;2023-08-12T10:30:06;20.00;99.90
59855;DHT22;45732;52.850;6.896;2023-08-12T10:32:33;20.10;99.90
59855;DHT22;45732;52.850;6.896;2023-08-12T10:35:00;20.00;99.90
59855;DHT22;45732;52.850;6.896;2023-08-12T10:37:26;20.10;99.90
59855;DHT22;45732;52.850;6.896;2023-08-12T10:39:53;20.10;99.90
59855;DHT22;45732;52.850;6.896;2023-08-12T10:42:44;20.10;99.90
59855;DHT22;45732;52.850;6.896;2023-08-12T10:45:14;20.10;99.90
59855;DHT22;45732;52.850;6.896;2023-08-12T10:50:20;20.00;99.90
59855;DHT22;45732;52.850;6.896;2023-08-12T10:52:47;20.00;99.90
59855;DHT22;45732;52.850;6.896;2023-08-12T10:55:23;20.00;99.90
59855;DHT22;45732;52.850;6.896;2023-08-12T10:57:54;20.10;99.90
59855;DHT22;45732;52.850;6.896;2023-08-12T11:00:24;20.10;99.90
59855;DHT22;45732;52.850;6.896;2023-08-12T11:02:52;20.20;99.90
59855;DHT22;45732;52.850;6.896;2023-08-12T11:05:18;20.20;99.90
59855;DHT22;45732;52.850;6.896;2023-08-12T11:07:57;20.20;99.90
59855;DHT22;45732;52.850;6.896;2023-08-12T11:10:30;20.30;99.90
59855;DHT22;45732;52.850;6.896;2023-08-12T11:12:56;20.30;99.90
59855;DHT22;45732;52.850;6.896;2023-08-12T11:15:41;20.40;99.90
59855;DHT22;45732;52.850;6.896;2023-08-12T11:18:25;20.50;99.90
59855;DHT22;45732;52.850;6.896;2023-08-12T11:20:52;20.60;99.90
59855;DHT22;45732;52.850;6.896;2023-08-12T11:23:19;20.70;99.90
59855;DHT22;45732;52.850;6.896;2023-08-12T11:25:46;20.60;99.90
59855;DHT22;45732;52.850;6.896;2023-08-12T11:28:17;20.60;99.90
59855;DHT22;45732;52.850;6.896;2023-08-12T11:30:43;20.70;99.90
59855;DHT22;45732;52.850;6.896;2023-08-12T11:33:09;20.80;99.90
59855;DHT22;45732;52.850;6.896;2023-08-12T11:35:35;20.80;99.90
59855;DHT22;45732;52.850;6.896;2023-08-12T11:38:00;20.70;99.90
59855;DHT22;45732;52.850;6.896;2023-08-12T11:40:27;20.70;99.90
59855;DHT22;45732;52.850;6.896;2023-08-12T11:42:53;20.70;99.90
59855;DHT22;45732;52.850;6.896;2023-08-12T11:45:25;20.70;99.90
59855;DHT22;45732;52.850;6.896;2023-08-12T11:47:51;20.80;99.90
59855;DHT22;45732;52.850;6.896;2023-08-12T11:50:25;20.80;99.90
59855;DHT22;45732;52.850;6.896;2023-08-12T11:52:52;20.70;99.90
59855;DHT22;45732;52.850;6.896;2023-08-12T11:55:18;20.80;99.90
59855;DHT22;45732;52.850;6.896;2023-08-12T11:57:44;20.80;99.90
59855;DHT22;45732;52.850;6.896;2023-08-12T12:00:11;20.70;99.90
59855;DHT22;45732;52.850;6.896;2023-08-12T12:02:45;20.80;99.90
59855;DHT22;45732;52.850;6.896;2023-08-12T12:05:12;20.80;99.90
59855;DHT22;45732;52.850;6.896;2023-08-12T12:12:54;20.90;99.90
59855;DHT22;45732;52.850;6.896;2023-08-12T12:15:20;21.10;99.90
59855;DHT22;45732;52.850;6.896;2023-08-12T12:17:48;21.10;99.90
59855;DHT22;45732;52.850;6.896;2023-08-12T12:20:14;21.10;99.90
59855;DHT22;45732;52.850;6.896;2023-08-12T12:22:43;21.20;99.90
59855;DHT22;45732;52.850;6.896;2023-08-12T12:25:10;21.20;99.90
59855;DHT22;45732;52.850;6.896;2023-08-12T12:27:38;21.20;99.90
59855;DHT22;45732;52.850;6.896;2023-08-12T12:30:07;21.20;99.90
59855;DHT22;45732;52.850;6.896;2023-08-12T12:32:33;21.30;99.90
59855;DHT22;45732;52.850;6.896;2023-08-12T12:34:59;21.30;99.90
59855;DHT22;45732;52.850;6.896;2023-08-12T12:37:25;21.40;99.90
59855;DHT22;45732;52.850;6.896;2023-08-12T12:39:51;21.30;99.90
59855;DHT22;45732;52.850;6.896;2023-08-12T12:42:17;21.20;99.90
59855;DHT22;45732;52.850;6.896;2023-08-12T12:44:43;21.20;99.90
59855;DHT22;45732;52.850;6.896;2023-08-12T12:47:08;21.10;99.90
59855;DHT22;45732;52.850;6.896;2023-08-12T12:49:36;21.10;99.90
59855;DHT22;45732;52.850;6.896;2023-08-12T12:52:02;21.00;99.90
59855;DHT22;45732;52.850;6.896;2023-08-12T12:54:27;20.90;99.90
59855;DHT22;45732;52.850;6.896;2023-08-12T12:56:55;21.00;99.90
59855;DHT22;45732;52.850;6.896;2023-08-12T12:59:20;20.90;99.90
59855;DHT22;45732;52.850;6.896;2023-08-12T13:01:46;21.00;99.90
59855;DHT22;45732;52.850;6.896;2023-08-12T13:04:12;21.10;99.90
59855;DHT22;45732;52.850;6.896;2023-08-12T13:06:38;21.00;99.90
59855;DHT22;45732;52.850;6.896;2023-08-12T13:09:04;21.10;99.90
59855;DHT22;45732;52.850;6.896;2023-08-12T13:11:32;21.10;99.90
59855;DHT22;45732;52.850;6.896;2023-08-12T13:13:59;21.10;99.90
59855;DHT22;45732;52.850;6.896;2023-08-12T13:16:25;21.00;99.90
59855;DHT22;45732;52.850;6.896;2023-08-12T13:18:50;20.90;99.90
59855;DHT22;45732;52.850;6.896;2023-08-12T13:21:16;20.80;99.90
59855;DHT22;45732;52.850;6.896;2023-08-12T13:23:42;20.80;99.90
59855;DHT22;45732;52.850;6.896;2023-08-12T13:26:08;20.80;99.90
59855;DHT22;45732;52.850;6.896;2023-08-12T13:28:33;20.80;99.90
59855;DHT22;45732;52.850;6.896;2023-08-12T13:30:59;20.80;99.90
59855;DHT22;45732;52.850;6.896;2023-08-12T13:33:25;20.80;99.90
59855;DHT22;45732;52.850;6.896;2023-08-12T13:35:51;20.80;99.90
59855;DHT22;45732;52.850;6.896;2023-08-12T13:38:16;20.90;99.90
59855;DHT22;45732;52.850;6.896;2023-08-12T13:40:42;20.90;99.90
59855;DHT22;45732;52.850;6.896;2023-08-12T13:43:08;20.90;99.90
59855;DHT22;45732;52.850;6.896;2023-08-12T13:45:34;20.90;99.90
59855;DHT22;45732;52.850;6.896;2023-08-12T13:47:59;20.90;99.90
59855;DHT22;45732;52.850;6.896;2023-08-12T13:50:25;20.90;99.90
59855;DHT22;45732;52.850;6.896;2023-08-12T13:52:51;20.90;99.90
59855;DHT22;45732;52.850;6.896;2023-08-12T13:55:16;20.90;99.90
59855;DHT22;45732;52.850;6.896;2023-08-12T13:57:42;20.90;99.90
59855;DHT22;45732;52.850;6.896;2023-08-12T14:00:08;20.90;99.90
59855;DHT22;45732;52.850;6.896;2023-08-12T14:02:40;20.90;99.90
59855;DHT22;45732;52.850;6.896;2023-08-12T14:05:07;21.00;99.90
59855;DHT22;45732;52.850;6.896;2023-08-12T14:07:33;21.00;99.90
59855;DHT22;45732;52.850;6.896;2023-08-12T14:09:59;21.00;99.90
59855;DHT22;45732;52.850;6.896;2023-08-12T14:12:25;21.10;99.90
59855;DHT22;45732;52.850;6.896;2023-08-12T14:14:51;21.10;99.90
59855;DHT22;45732;52.850;6.896;2023-08-12T14:17:17;21.20;99.90
59855;DHT22;45732;52.850;6.896;2023-08-12T14:19:50;21.20;99.90
59855;DHT22;45732;52.850;6.896;2023-08-12T14:22:17;21.20;99.90
59855;DHT22;45732;52.850;6.896;2023-08-12T14:24:43;21.20;99.90
59855;DHT22;45732;52.850;6.896;2023-08-12T14:27:10;21.30;99.90
59855;DHT22;45732;52.850;6.896;2023-08-12T14:29:36;21.30;99.90
59855;DHT22;45732;52.850;6.896;2023-08-12T14:32:02;21.30;99.90
59855;DHT22;45732;52.850;6.896;2023-08-12T14:34:27;21.30;99.90
59855;DHT22;45732;52.850;6.896;2023-08-12T14:36:53;21.30;99.90
59855;DHT22;45732;52.850;6.896;2023-08-12T14:39:19;21.40;99.90
59855;DHT22;45732;52.850;6.896;2023-08-12T14:41:44;21.40;99.90
59855;DHT22;45732;52.850;6.896;2023-08-12T14:44:10;21.40;99.90
59855;DHT22;45732;52.850;6.896;2023-08-12T14:46:36;21.50;99.90
59855;DHT22;45732;52.850;6.896;2023-08-12T14:49:02;21.50;99.90
59855;DHT22;45732;52.850;6.896;2023-08-12T14:51:27;21.50;99.90
59855;DHT22;45732;52.850;6.896;2023-08-12T14:53:55;21.60;99.90
59855;DHT22;45732;52.850;6.896;2023-08-12T14:56:21;21.60;99.90
59855;DHT22;45732;52.850;6.896;2023-08-12T14:58:47;21.60;99.90
59855;DHT22;45732;52.850;6.896;2023-08-12T15:01:12;21.70;99.90
59855;DHT22;45732;52.850;6.896;2023-08-12T15:03:38;21.70;99.90
59855;DHT22;45732;52.850;6.896;2023-08-12T15:06:04;21.80;99.90
59855;DHT22;45732;52.850;6.896;2023-08-12T15:08:31;21.80;99.90
59855;DHT22;45732;52.850;6.896;2023-08-12T15:10:57;21.90;99.90
59855;DHT22;45732;52.850;6.896;2023-08-12T15:13:24;22.00;99.90
59855;DHT22;45732;52.850;6.896;2023-08-12T15:15:50;22.00;99.90
59855;DHT22;45732;52.850;6.896;2023-08-12T15:18:16;22.10;99.90
59855;DHT22;45732;52.850;6.896;2023-08-12T15:20:42;22.20;99.90
59855;DHT22;45732;52.850;6.896;2023-08-12T15:23:09;22.20;99.90
59855;DHT22;45732;52.850;6.896;2023-08-12T15:25:34;22.20;99.90
59855;DHT22;45732;52.850;6.896;2023-08-12T15:28:00;22.20;99.90
59855;DHT22;45732;52.850;6.896;2023-08-12T15:30:26;22.30;99.90
59855;DHT22;45732;52.850;6.896;2023-08-12T15:32:52;22.20;99.90
59855;DHT22;45732;52.850;6.896;2023-08-12T15:35:17;22.20;99.90
59855;DHT22;45732;52.850;6.896;2023-08-12T15:37:43;22.20;99.90
59855;DHT22;45732;52.850;6.896;2023-08-12T15:40:09;22.20;99.90
59855;DHT22;45732;52.850;6.896;2023-08-12T15:42:35;22.20;99.90